Portada
METAR-TAF:

METAR-TAF

Aeropuertos :

Smith Field

Siloam Springs, Arkansas, Estados Unidos

latitud: 36-12N, longitud: 094-29W, altitud: 300 m

Observación

El informe se hizo hace 1 hora y 0 minutos, a las 07:56 UTC
Viento calma
Temperatura 23°C
Humedad 89%
Presión 1016 hPa
Visibilidad: 16.1 km
Cielo nuboso a una altura de 4000 ft

METAR: KSLG 060756Z AUTO 00000KT 10SM BKN040 23/21 A3000 RMK AO2 SLP146 T02280211 TSNO

Hora: 03:56 (08:56 UTC)


TAF: falta

Observaciones y pronósticos meteorológicos de más de 4000 aeropuertos (mensajes METAR y TAF).

Los puntos amarillos y rojos representan las estaciones disponibles.

Ponga el ratón en el punto deseado para ver el nombre de la estación.

Haga clic para ver las observaciones y los pronósticos meteorológicos.

Para cambiar el mapa : haga clic en los botones verdes con una cruz de color negro para hacer un zoom, en el botón verde con un guión para alejar o en las flechas verdes para mapas adyacentes.


METAR-TAF: